sensor_id;sensor_type;location;lat;lon;timestamp;pressure;altitude;pressure_sealevel;temperature;humidity
75668;BME280;64266;48.798;44.756;2023-07-13T00:00:26;101060.44;;;19.25;65.21
75668;BME280;64266;48.798;44.756;2023-07-13T00:05:29;101115.38;;;19.59;65.24
75668;BME280;64266;48.798;44.756;2023-07-13T00:10:32;101119.69;;;19.55;64.05
75668;BME280;64266;48.798;44.756;2023-07-13T00:15:35;101131.22;;;19.51;64.36
75668;BME280;64266;48.798;44.756;2023-07-13T00:20:41;101127.19;;;19.43;64.04
75668;BME280;64266;48.798;44.756;2023-07-13T00:25:44;101097.53;;;19.18;64.71
75668;BME280;64266;48.798;44.756;2023-07-13T00:30:48;101093.75;;;19.04;65.68
75668;BME280;64266;48.798;44.756;2023-07-13T00:35:51;101106.38;;;19.08;65.88
75668;BME280;64266;48.798;44.756;2023-07-13T00:40:53;101096.34;;;18.83;66.69
75668;BME280;64266;48.798;44.756;2023-07-13T00:51:03;101136.94;;;18.87;66.07
75668;BME280;64266;48.798;44.756;2023-07-13T00:56:07;101147.41;;;18.78;65.35
75668;BME280;64266;48.798;44.756;2023-07-13T01:01:12;101156.56;;;18.82;64.95
75668;BME280;64266;48.798;44.756;2023-07-13T01:06:15;101121.81;;;18.66;63.95
75668;BME280;64266;48.798;44.756;2023-07-13T01:11:21;101153.34;;;18.85;63.60
75668;BME280;64266;48.798;44.756;2023-07-13T01:16:27;101130.75;;;18.86;63.07
75668;BME280;64266;48.798;44.756;2023-07-13T01:21:32;101132.69;;;18.96;63.46
75668;BME280;64266;48.798;44.756;2023-07-13T01:26:37;101078.53;;;18.62;61.29
75668;BME280;64266;48.798;44.756;2023-07-13T01:31:41;101094.81;;;18.98;60.18
75668;BME280;64266;48.798;44.756;2023-07-13T01:36:46;101100.78;;;19.30;56.44
75668;BME280;64266;48.798;44.756;2023-07-13T01:41:49;101119.13;;;19.43;54.78
75668;BME280;64266;48.798;44.756;2023-07-13T01:46:54;101110.00;;;19.44;54.20
75668;BME280;64266;48.798;44.756;2023-07-13T01:51:59;101126.41;;;19.63;52.29
75668;BME280;64266;48.798;44.756;2023-07-13T01:57:02;101119.97;;;19.59;51.79
75668;BME280;64266;48.798;44.756;2023-07-13T02:02:06;101143.91;;;19.70;51.85
75668;BME280;64266;48.798;44.756;2023-07-13T02:07:09;101154.94;;;19.69;51.81
75668;BME280;64266;48.798;44.756;2023-07-13T02:12:12;101134.16;;;19.39;51.73
75668;BME280;64266;48.798;44.756;2023-07-13T02:17:15;101148.72;;;19.43;52.68
75668;BME280;64266;48.798;44.756;2023-07-13T02:22:18;101149.75;;;19.37;54.20
75668;BME280;64266;48.798;44.756;2023-07-13T02:27:22;101173.22;;;19.52;55.94
75668;BME280;64266;48.798;44.756;2023-07-13T02:32:25;101167.81;;;19.52;56.93
75668;BME280;64266;48.798;44.756;2023-07-13T02:37:29;101158.13;;;19.40;57.31
75668;BME280;64266;48.798;44.756;2023-07-13T02:42:32;101157.88;;;19.47;57.71
75668;BME280;64266;48.798;44.756;2023-07-13T02:47:36;101147.94;;;19.53;57.98
75668;BME280;64266;48.798;44.756;2023-07-13T02:52:38;101174.06;;;19.77;58.33
75668;BME280;64266;48.798;44.756;2023-07-13T02:57:41;101172.72;;;19.95;57.71
75668;BME280;64266;48.798;44.756;2023-07-13T03:02:44;101174.09;;;20.33;57.40
75668;BME280;64266;48.798;44.756;2023-07-13T03:07:48;101168.06;;;20.76;55.83
75668;BME280;64266;48.798;44.756;2023-07-13T03:12:51;101185.63;;;21.77;54.15
75668;BME280;64266;48.798;44.756;2023-07-13T03:17:58;101140.81;;;23.09;49.39
75668;BME280;64266;48.798;44.756;2023-07-13T03:23:03;101182.88;;;24.87;45.90
75668;BME280;64266;48.798;44.756;2023-07-13T03:28:06;101159.72;;;26.11;42.97
75668;BME280;64266;48.798;44.756;2023-07-13T03:33:09;101148.22;;;26.84;41.39
75668;BME280;64266;48.798;44.756;2023-07-13T03:38:13;101181.66;;;28.01;38.35
75668;BME280;64266;48.798;44.756;2023-07-13T03:43:16;101186.91;;;28.78;36.27
75668;BME280;64266;48.798;44.756;2023-07-13T03:48:19;101193.91;;;29.46;34.91
75668;BME280;64266;48.798;44.756;2023-07-13T03:53:23;101195.56;;;30.13;34.17
75668;BME280;64266;48.798;44.756;2023-07-13T03:58:29;101205.50;;;30.75;32.01
75668;BME280;64266;48.798;44.756;2023-07-13T04:04:05;101207.56;;;31.14;31.44
75668;BME280;64266;48.798;44.756;2023-07-13T04:09:09;101212.09;;;31.34;31.05
75668;BME280;64266;48.798;44.756;2023-07-13T04:14:11;101222.38;;;31.49;31.22
75668;BME280;64266;48.798;44.756;2023-07-13T04:19:15;101211.66;;;31.72;31.31
75668;BME280;64266;48.798;44.756;2023-07-13T04:24:18;101218.91;;;31.92;30.64
75668;BME280;64266;48.798;44.756;2023-07-13T04:29:22;101226.53;;;32.27;30.28
75668;BME280;64266;48.798;44.756;2023-07-13T04:34:24;101241.34;;;32.53;28.23
75668;BME280;64266;48.798;44.756;2023-07-13T04:39:28;101228.56;;;32.73;27.77
75668;BME280;64266;48.798;44.756;2023-07-13T04:44:31;101231.81;;;33.10;26.92
75668;BME280;64266;48.798;44.756;2023-07-13T04:49:34;101235.06;;;33.50;26.47
75668;BME280;64266;48.798;44.756;2023-07-13T04:54:38;101241.63;;;33.61;26.94
75668;BME280;64266;48.798;44.756;2023-07-13T04:59:42;101249.84;;;34.00;24.68
75668;BME280;64266;48.798;44.756;2023-07-13T05:04:49;101251.53;;;34.23;24.56
75668;BME280;64266;48.798;44.756;2023-07-13T05:09:52;101257.72;;;34.40;23.57
75668;BME280;64266;48.798;44.756;2023-07-13T05:14:55;101254.94;;;34.81;23.83
75668;BME280;64266;48.798;44.756;2023-07-13T05:19:59;101247.34;;;34.98;21.59
75668;BME280;64266;48.798;44.756;2023-07-13T05:25:05;101250.69;;;35.10;21.38
75668;BME280;64266;48.798;44.756;2023-07-13T05:30:13;101252.06;;;35.50;21.43
75668;BME280;64266;48.798;44.756;2023-07-13T05:35:17;101243.56;;;34.60;20.09
75668;BME280;64266;48.798;44.756;2023-07-13T05:40:28;101243.03;;;32.27;22.90
75668;BME280;64266;48.798;44.756;2023-07-13T05:45:32;101234.66;;;30.46;24.72
75668;BME280;64266;48.798;44.756;2023-07-13T05:50:35;101227.84;;;29.08;26.65
75668;BME280;64266;48.798;44.756;2023-07-13T05:55:43;101264.41;;;28.31;27.91
75668;BME280;64266;48.798;44.756;2023-07-13T06:00:47;101264.25;;;27.76;29.02
75668;BME280;64266;48.798;44.756;2023-07-13T06:05:50;101259.34;;;27.38;30.68
75668;BME280;64266;48.798;44.756;2023-07-13T06:10:54;101259.97;;;27.18;30.51
75668;BME280;64266;48.798;44.756;2023-07-13T06:15:57;101235.25;;;26.67;31.06
75668;BME280;64266;48.798;44.756;2023-07-13T06:21:17;101259.00;;;26.30;32.06
75668;BME280;64266;48.798;44.756;2023-07-13T06:26:22;101277.16;;;25.99;33.50
75668;BME280;64266;48.798;44.756;2023-07-13T06:31:26;101267.09;;;25.64;33.59
75668;BME280;64266;48.798;44.756;2023-07-13T06:36:29;101274.84;;;25.29;35.70
75668;BME280;64266;48.798;44.756;2023-07-13T06:41:33;101271.66;;;25.00;35.53
75668;BME280;64266;48.798;44.756;2023-07-13T06:46:37;101228.25;;;24.54;34.86
75668;BME280;64266;48.798;44.756;2023-07-13T06:51:42;101259.81;;;24.64;35.90
75668;BME280;64266;48.798;44.756;2023-07-13T06:56:47;101286.84;;;24.69;35.93
75668;BME280;64266;48.798;44.756;2023-07-13T07:01:49;101253.47;;;24.55;36.42
75668;BME280;64266;48.798;44.756;2023-07-13T07:06:52;101270.25;;;24.70;35.29
75668;BME280;64266;48.798;44.756;2023-07-13T07:12:01;101273.50;;;24.72;34.53
75668;BME280;64266;48.798;44.756;2023-07-13T07:17:06;101281.59;;;25.05;33.87
75668;BME280;64266;48.798;44.756;2023-07-13T07:22:11;101278.66;;;25.42;34.02
75668;BME280;64266;48.798;44.756;2023-07-13T07:27:14;101246.50;;;26.07;32.80
75668;BME280;64266;48.798;44.756;2023-07-13T07:32:22;101273.09;;;27.16;31.30
75668;BME280;64266;48.798;44.756;2023-07-13T07:37:27;101266.63;;;27.69;30.54
75668;BME280;64266;48.798;44.756;2023-07-13T07:42:39;101266.50;;;27.65;30.10
75668;BME280;64266;48.798;44.756;2023-07-13T07:47:42;101270.41;;;27.25;30.63
75668;BME280;64266;48.798;44.756;2023-07-13T07:52:45;101234.09;;;27.55;29.63
75668;BME280;64266;48.798;44.756;2023-07-13T07:57:48;101250.47;;;27.98;28.65
75668;BME280;64266;48.798;44.756;2023-07-13T08:02:53;101278.69;;;27.93;26.32
75668;BME280;64266;48.798;44.756;2023-07-13T08:07:59;101266.63;;;27.52;27.43
75668;BME280;64266;48.798;44.756;2023-07-13T08:13:01;101282.34;;;27.72;28.05
75668;BME280;64266;48.798;44.756;2023-07-13T08:18:08;101252.53;;;27.67;27.53
75668;BME280;64266;48.798;44.756;2023-07-13T08:23:13;101268.63;;;28.11;26.67
75668;BME280;64266;48.798;44.756;2023-07-13T08:28:21;101273.28;;;27.28;28.66
75668;BME280;64266;48.798;44.756;2023-07-13T08:33:24;101249.41;;;26.86;29.07
75668;BME280;64266;48.798;44.756;2023-07-13T08:38:27;101286.63;;;26.68;28.73
75668;BME280;64266;48.798;44.756;2023-07-13T08:43:35;101287.69;;;26.81;28.38
75668;BME280;64266;48.798;44.756;2023-07-13T08:49:06;101281.00;;;26.42;27.43
75668;BME280;64266;48.798;44.756;2023-07-13T08:54:21;101274.84;;;26.51;28.41
75668;BME280;64266;48.798;44.756;2023-07-13T08:59:28;101292.16;;;26.55;28.02
75668;BME280;64266;48.798;44.756;2023-07-13T09:10:13;101290.19;;;26.77;28.09
75668;BME280;64266;48.798;44.756;2023-07-13T09:15:43;101279.31;;;26.55;27.69
75668;BME280;64266;48.798;44.756;2023-07-13T09:20:57;101278.19;;;26.48;27.65
75668;BME280;64266;48.798;44.756;2023-07-13T09:31:16;101279.81;;;26.13;28.35
75668;BME280;64266;48.798;44.756;2023-07-13T09:36:31;101284.00;;;25.97;28.54
75668;BME280;64266;48.798;44.756;2023-07-13T09:46:55;101274.31;;;26.04;28.33
75668;BME280;64266;48.798;44.756;2023-07-13T09:52:04;101273.06;;;26.24;28.18
75668;BME280;64266;48.798;44.756;2023-07-13T09:57:16;101274.81;;;26.06;27.62
75668;BME280;64266;48.798;44.756;2023-07-13T10:07:31;101264.06;;;26.46;26.09
75668;BME280;64266;48.798;44.756;2023-07-13T10:12:36;101273.03;;;26.46;26.96
75668;BME280;64266;48.798;44.756;2023-07-13T10:17:43;101270.59;;;26.36;27.20
75668;BME280;64266;48.798;44.756;2023-07-13T10:23:00;101253.28;;;26.63;25.65
75668;BME280;64266;48.798;44.756;2023-07-13T10:28:30;101264.81;;;26.60;26.55
75668;BME280;64266;48.798;44.756;2023-07-13T10:33:36;101272.38;;;26.40;26.73
75668;BME280;64266;48.798;44.756;2023-07-13T10:38:40;101240.22;;;26.42;26.47
75668;BME280;64266;48.798;44.756;2023-07-13T10:43:51;101273.66;;;26.74;26.03
75668;BME280;64266;48.798;44.756;2023-07-13T10:48:58;101262.41;;;26.89;26.28
75668;BME280;64266;48.798;44.756;2023-07-13T10:54:35;101263.34;;;26.84;25.75
75668;BME280;64266;48.798;44.756;2023-07-13T10:59:40;101252.22;;;26.72;26.85
75668;BME280;64266;48.798;44.756;2023-07-13T11:04:48;101251.41;;;26.72;25.44
75668;BME280;64266;48.798;44.756;2023-07-13T11:09:55;101233.63;;;26.66;25.51
75668;BME280;64266;48.798;44.756;2023-07-13T11:15:04;101263.53;;;26.88;26.14
75668;BME280;64266;48.798;44.756;2023-07-13T11:25:29;101251.72;;;26.70;26.31
75668;BME280;64266;48.798;44.756;2023-07-13T11:36:03;101245.22;;;26.49;27.08
75668;BME280;64266;48.798;44.756;2023-07-13T11:41:19;101208.81;;;26.36;26.33
75668;BME280;64266;48.798;44.756;2023-07-13T11:46:27;101232.75;;;26.48;26.21
75668;BME280;64266;48.798;44.756;2023-07-13T11:51:34;101235.13;;;26.50;26.25
75668;BME280;64266;48.798;44.756;2023-07-13T12:02:36;101224.63;;;26.57;25.85
75668;BME280;64266;48.798;44.756;2023-07-13T12:07:41;101229.88;;;26.84;26.03
75668;BME280;64266;48.798;44.756;2023-07-13T12:12:57;101244.59;;;26.83;26.49
75668;BME280;64266;48.798;44.756;2023-07-13T12:18:01;101236.19;;;26.71;26.40
75668;BME280;64266;48.798;44.756;2023-07-13T12:23:22;101245.75;;;26.60;27.19
75668;BME280;64266;48.798;44.756;2023-07-13T12:28:36;101234.44;;;26.35;26.28
75668;BME280;64266;48.798;44.756;2023-07-13T12:33:39;101251.38;;;26.32;26.70
75668;BME280;64266;48.798;44.756;2023-07-13T12:38:45;101247.41;;;26.16;27.46
75668;BME280;64266;48.798;44.756;2023-07-13T12:43:50;101227.44;;;25.99;27.63
75668;BME280;64266;48.798;44.756;2023-07-13T12:48:54;101205.50;;;25.95;28.12
75668;BME280;64266;48.798;44.756;2023-07-13T12:54:20;101200.31;;;26.07;27.03
75668;BME280;64266;48.798;44.756;2023-07-13T12:59:29;101214.28;;;26.14;26.87
75668;BME280;64266;48.798;44.756;2023-07-13T13:04:33;101189.66;;;25.97;27.23
75668;BME280;64266;48.798;44.756;2023-07-13T13:09:37;101202.34;;;26.02;27.08
75668;BME280;64266;48.798;44.756;2023-07-13T13:14:41;101211.38;;;26.11;27.30
75668;BME280;64266;48.798;44.756;2023-07-13T13:19:44;101211.53;;;26.36;27.75
75668;BME280;64266;48.798;44.756;2023-07-13T13:24:48;101199.09;;;26.44;27.32
75668;BME280;64266;48.798;44.756;2023-07-13T13:29:52;101186.44;;;26.39;27.62
75668;BME280;64266;48.798;44.756;2023-07-13T13:34:56;101181.72;;;26.23;26.80
75668;BME280;64266;48.798;44.756;2023-07-13T13:39:59;101199.94;;;26.22;27.64
75668;BME280;64266;48.798;44.756;2023-07-13T13:45:12;101183.50;;;26.05;28.02
75668;BME280;64266;48.798;44.756;2023-07-13T13:50:19;101196.78;;;26.07;28.09
75668;BME280;64266;48.798;44.756;2023-07-13T13:55:23;101184.84;;;25.94;28.46
75668;BME280;64266;48.798;44.756;2023-07-13T14:00:27;101172.81;;;25.86;28.25
75668;BME280;64266;48.798;44.756;2023-07-13T14:05:29;101159.63;;;25.71;28.63
75668;BME280;64266;48.798;44.756;2023-07-13T14:10:33;101141.94;;;25.60;27.96
75668;BME280;64266;48.798;44.756;2023-07-13T14:15:36;101175.78;;;25.76;28.98
75668;BME280;64266;48.798;44.756;2023-07-13T14:20:40;101180.53;;;25.71;28.56
75668;BME280;64266;48.798;44.756;2023-07-13T14:25:45;101178.13;;;25.69;28.46
75668;BME280;64266;48.798;44.756;2023-07-13T14:30:51;101169.91;;;25.61;28.75
75668;BME280;64266;48.798;44.756;2023-07-13T14:35:57;101161.50;;;25.49;29.66
75668;BME280;64266;48.798;44.756;2023-07-13T14:41:00;101161.06;;;25.42;29.52
75668;BME280;64266;48.798;44.756;2023-07-13T14:46:03;101155.19;;;25.26;30.08
75668;BME280;64266;48.798;44.756;2023-07-13T14:51:08;101172.75;;;25.42;29.45
75668;BME280;64266;48.798;44.756;2023-07-13T14:56:14;101189.84;;;25.43;30.29
75668;BME280;64266;48.798;44.756;2023-07-13T15:01:17;101180.09;;;25.42;30.85
75668;BME280;64266;48.798;44.756;2023-07-13T15:06:20;101185.31;;;25.38;30.19
75668;BME280;64266;48.798;44.756;2023-07-13T15:11:23;101184.03;;;25.35;30.31
75668;BME280;64266;48.798;44.756;2023-07-13T15:16:26;101157.63;;;25.14;30.95
75668;BME280;64266;48.798;44.756;2023-07-13T15:21:30;101171.47;;;25.26;30.88
75668;BME280;64266;48.798;44.756;2023-07-13T15:26:37;101177.22;;;25.24;30.82
75668;BME280;64266;48.798;44.756;2023-07-13T15:31:41;101183.25;;;25.21;30.58
75668;BME280;64266;48.798;44.756;2023-07-13T15:36:44;101172.22;;;25.04;30.88
75668;BME280;64266;48.798;44.756;2023-07-13T15:41:47;101189.31;;;25.05;30.96
75668;BME280;64266;48.798;44.756;2023-07-13T15:46:50;101147.41;;;24.70;31.24
75668;BME280;64266;48.798;44.756;2023-07-13T15:51:53;101187.59;;;24.95;31.42
75668;BME280;64266;48.798;44.756;2023-07-13T15:57:00;101185.59;;;24.87;31.46
75668;BME280;64266;48.798;44.756;2023-07-13T16:02:22;101176.22;;;24.66;32.12
75668;BME280;64266;48.798;44.756;2023-07-13T16:07:24;101194.59;;;24.55;31.26
75668;BME280;64266;48.798;44.756;2023-07-13T16:12:27;101212.09;;;24.63;31.81
75668;BME280;64266;48.798;44.756;2023-07-13T16:17:31;101189.16;;;24.42;32.36
75668;BME280;64266;48.798;44.756;2023-07-13T16:22:33;101207.56;;;24.45;33.02
75668;BME280;64266;48.798;44.756;2023-07-13T16:27:36;101217.47;;;24.36;33.30
75668;BME280;64266;48.798;44.756;2023-07-13T16:32:39;101209.50;;;24.25;33.59
75668;BME280;64266;48.798;44.756;2023-07-13T16:37:42;101213.50;;;24.14;33.97
75668;BME280;64266;48.798;44.756;2023-07-13T16:43:05;101203.66;;;24.00;33.72
75668;BME280;64266;48.798;44.756;2023-07-13T16:48:17;101212.19;;;23.93;34.43
75668;BME280;64266;48.798;44.756;2023-07-13T16:53:27;101242.19;;;23.97;34.48
75668;BME280;64266;48.798;44.756;2023-07-13T16:58:32;101211.47;;;23.69;34.62
75668;BME280;64266;48.798;44.756;2023-07-13T17:03:36;101240.66;;;23.72;35.08
75668;BME280;64266;48.798;44.756;2023-07-13T17:08:38;101245.47;;;23.56;35.50
75668;BME280;64266;48.798;44.756;2023-07-13T17:13:41;101251.28;;;23.50;35.81
75668;BME280;64266;48.798;44.756;2023-07-13T17:18:47;101268.09;;;23.47;35.73
75668;BME280;64266;48.798;44.756;2023-07-13T17:23:50;101249.44;;;23.21;35.94
75668;BME280;64266;48.798;44.756;2023-07-13T17:28:55;101268.38;;;23.21;37.65
75668;BME280;64266;48.798;44.756;2023-07-13T17:33:58;101267.00;;;23.00;38.74
75668;BME280;64266;48.798;44.756;2023-07-13T17:39:01;101281.91;;;22.98;39.13
75668;BME280;64266;48.798;44.756;2023-07-13T17:44:06;101284.09;;;22.96;39.24
75668;BME280;64266;48.798;44.756;2023-07-13T17:49:19;101279.50;;;22.96;39.06
75668;BME280;64266;48.798;44.756;2023-07-13T17:54:25;101278.69;;;22.96;39.43
75668;BME280;64266;48.798;44.756;2023-07-13T17:59:29;101289.50;;;22.96;39.76
75668;BME280;64266;48.798;44.756;2023-07-13T18:04:32;101292.50;;;22.94;39.65
75668;BME280;64266;48.798;44.756;2023-07-13T18:09:36;101275.56;;;22.84;39.81
75668;BME280;64266;48.798;44.756;2023-07-13T18:14:39;101257.34;;;22.65;39.62
75668;BME280;64266;48.798;44.756;2023-07-13T18:19:44;101279.41;;;22.78;39.10
75668;BME280;64266;48.798;44.756;2023-07-13T18:24:48;101286.94;;;22.81;38.96
75668;BME280;64266;48.798;44.756;2023-07-13T18:29:52;101295.81;;;22.86;38.98
75668;BME280;64266;48.798;44.756;2023-07-13T18:35:28;101300.13;;;22.87;39.13
75668;BME280;64266;48.798;44.756;2023-07-13T18:40:32;101277.84;;;22.72;39.84
75668;BME280;64266;48.798;44.756;2023-07-13T18:45:36;101293.81;;;22.73;40.10
75668;BME280;64266;48.798;44.756;2023-07-13T18:50:40;101292.22;;;22.67;40.42
75668;BME280;64266;48.798;44.756;2023-07-13T18:55:46;101297.63;;;22.62;40.30
75668;BME280;64266;48.798;44.756;2023-07-13T19:00:51;101284.78;;;22.49;40.67
75668;BME280;64266;48.798;44.756;2023-07-13T19:06:02;101280.47;;;22.48;41.14
75668;BME280;64266;48.798;44.756;2023-07-13T19:11:24;101278.28;;;22.50;41.70
75668;BME280;64266;48.798;44.756;2023-07-13T19:16:28;101275.63;;;22.45;41.52
75668;BME280;64266;48.798;44.756;2023-07-13T19:21:35;101300.66;;;22.55;42.41
75668;BME280;64266;48.798;44.756;2023-07-13T19:26:41;101284.06;;;22.38;42.50
75668;BME280;64266;48.798;44.756;2023-07-13T19:31:44;101292.94;;;22.44;42.33
75668;BME280;64266;48.798;44.756;2023-07-13T19:36:51;101275.66;;;22.40;42.27
75668;BME280;64266;48.798;44.756;2023-07-13T19:42:03;101287.00;;;22.42;42.41
75668;BME280;64266;48.798;44.756;2023-07-13T19:47:14;101276.16;;;22.47;42.36
75668;BME280;64266;48.798;44.756;2023-07-13T19:52:25;101266.19;;;22.42;42.24
75668;BME280;64266;48.798;44.756;2023-07-13T19:57:32;101284.78;;;22.49;42.73
75668;BME280;64266;48.798;44.756;2023-07-13T20:02:35;101281.63;;;22.37;43.34
75668;BME280;64266;48.798;44.756;2023-07-13T20:07:37;101274.47;;;22.22;43.27
75668;BME280;64266;48.798;44.756;2023-07-13T20:12:42;101280.91;;;22.26;43.56
75668;BME280;64266;48.798;44.756;2023-07-13T20:17:49;101278.59;;;22.14;43.25
75668;BME280;64266;48.798;44.756;2023-07-13T20:22:52;101282.91;;;22.10;43.34
75668;BME280;64266;48.798;44.756;2023-07-13T20:27:57;101243.72;;;21.74;43.42
75668;BME280;64266;48.798;44.756;2023-07-13T20:33:09;101260.69;;;21.80;44.35
75668;BME280;64266;48.798;44.756;2023-07-13T20:38:16;101267.97;;;21.79;44.22
75668;BME280;64266;48.798;44.756;2023-07-13T20:43:20;101257.22;;;21.69;44.52
75668;BME280;64266;48.798;44.756;2023-07-13T20:48:37;101261.59;;;21.60;45.02
75668;BME280;64266;48.798;44.756;2023-07-13T20:53:44;101236.38;;;21.31;45.62
75668;BME280;64266;48.798;44.756;2023-07-13T20:58:48;101250.94;;;21.35;45.63
75668;BME280;64266;48.798;44.756;2023-07-13T21:03:53;101246.09;;;21.32;46.37
75668;BME280;64266;48.798;44.756;2023-07-13T21:08:58;101242.91;;;21.15;46.22
75668;BME280;64266;48.798;44.756;2023-07-13T21:14:01;101266.09;;;21.21;46.68
75668;BME280;64266;48.798;44.756;2023-07-13T21:19:04;101265.31;;;21.10;47.47
75668;BME280;64266;48.798;44.756;2023-07-13T21:24:09;101259.63;;;21.06;47.44
75668;BME280;64266;48.798;44.756;2023-07-13T21:29:13;101246.97;;;21.02;47.91
75668;BME280;64266;48.798;44.756;2023-07-13T21:34:19;101225.97;;;20.84;48.07
75668;BME280;64266;48.798;44.756;2023-07-13T21:39:23;101253.75;;;20.94;48.17
75668;BME280;64266;48.798;44.756;2023-07-13T21:44:29;101245.69;;;20.79;48.62
75668;BME280;64266;48.798;44.756;2023-07-13T21:49:32;101217.16;;;20.63;48.65
75668;BME280;64266;48.798;44.756;2023-07-13T21:54:36;101229.25;;;20.66;49.68
75668;BME280;64266;48.798;44.756;2023-07-13T21:59:41;101221.69;;;20.68;49.67
75668;BME280;64266;48.798;44.756;2023-07-13T22:04:45;101221.69;;;20.68;49.46
75668;BME280;64266;48.798;44.756;2023-07-13T22:09:52;101198.28;;;20.53;49.45
75668;BME280;64266;48.798;44.756;2023-07-13T22:14:55;101202.56;;;20.64;49.56
75668;BME280;64266;48.798;44.756;2023-07-13T22:19:58;101210.97;;;20.58;49.81
75668;BME280;64266;48.798;44.756;2023-07-13T22:25:00;101193.47;;;20.45;50.52
75668;BME280;64266;48.798;44.756;2023-07-13T22:30:05;101201.28;;;20.41;50.13
75668;BME280;64266;48.798;44.756;2023-07-13T22:35:11;101183.47;;;20.25;49.90
75668;BME280;64266;48.798;44.756;2023-07-13T22:40:15;101187.00;;;20.26;49.81
75668;BME280;64266;48.798;44.756;2023-07-13T22:45:20;101162.78;;;20.06;50.00
75668;BME280;64266;48.798;44.756;2023-07-13T22:50:23;101179.47;;;20.08;50.41
75668;BME280;64266;48.798;44.756;2023-07-13T22:55:26;101155.78;;;19.89;50.85
75668;BME280;64266;48.798;44.756;2023-07-13T23:00:30;101161.13;;;19.79;50.96
75668;BME280;64266;48.798;44.756;2023-07-13T23:05:36;101169.22;;;19.79;51.54
75668;BME280;64266;48.798;44.756;2023-07-13T23:10:44;101158.44;;;19.64;51.43
75668;BME280;64266;48.798;44.756;2023-07-13T23:15:49;101171.34;;;19.72;51.16
75668;BME280;64266;48.798;44.756;2023-07-13T23:20:53;101168.94;;;19.71;52.19
75668;BME280;64266;48.798;44.756;2023-07-13T23:25:56;101179.16;;;19.69;52.06
75668;BME280;64266;48.798;44.756;2023-07-13T23:30:58;101169.97;;;19.55;52.78
75668;BME280;64266;48.798;44.756;2023-07-13T23:36:05;101173.22;;;19.57;52.68
75668;BME280;64266;48.798;44.756;2023-07-13T23:41:14;101164.06;;;19.53;53.23
75668;BME280;64266;48.798;44.756;2023-07-13T23:46:40;101174.03;;;19.52;53.42
75668;BME280;64266;48.798;44.756;2023-07-13T23:51:44;101149.19;;;19.30;53.13
75668;BME280;64266;48.798;44.756;2023-07-13T23:56:49;101142.19;;;19.29;54.27
